Time;durP1;ratioP1;P1;durP2;ratioP2;P2;SDS_P1;SDS_P2;PMS_P1;PMS_P2;Temp;Humidity;BMP_temperature;BMP_pressure;BME280_temperature;BME280_humidity;BME280_pressure;Samples;Min_cycle;Max_cycle;Signal;HPM_P1;HPM_P2
2022/06/15 00:00:56;;;;;;;8.68;5.43;;;;;;;;;;5066088;28;20052;-72
2022/06/15 00:03:30;;;;;;;12.95;6.30;;;;;;;;;;5066662;28;20055;-73
2022/06/15 00:06:07;;;;;;;14.38;6.70;;;;;;;;;;5065906;28;20080;-72
2022/06/15 00:08:38;;;;;;;10.45;6.35;;;;;;;;;;5065471;28;20071;-74
2022/06/15 00:11:12;;;;;;;7.85;5.32;;;;;;;;;;5065252;28;20503;-72
2022/06/15 00:13:42;;;;;;;9.65;5.18;;;;;;;;;;5066160;28;20056;-73
2022/06/15 00:16:13;;;;;;;13.40;5.63;;;;;;;;;;5063802;28;20056;-72
2022/06/15 00:18:45;;;;;;;7.18;5.68;;;;;;;;;;5063103;28;20032;-72
2022/06/15 00:21:17;;;;;;;7.00;4.68;;;;;;;;;;5065383;28;20049;-73
2022/06/15 00:23:48;;;;;;;5.95;5.13;;;;;;;;;;5064085;28;20044;-72
2022/06/15 00:26:19;;;;;;;6.07;4.82;;;;;;;;;;5066746;28;20052;-73
2022/06/15 00:28:49;;;;;;;6.60;5.45;;;;;;;;;;5065841;28;20044;-73
2022/06/15 00:31:20;;;;;;;6.18;4.90;;;;;;;;;;5065767;28;20048;-73
2022/06/15 00:33:50;;;;;;;5.70;5.10;;;;;;;;;;5065272;28;20051;-73
2022/06/15 00:36:22;;;;;;;5.95;4.68;;;;;;;;;;5066215;28;20056;-73
2022/06/15 00:38:55;;;;;;;8.40;4.50;;;;;;;;;;5066555;28;20051;-73
2022/06/15 00:41:33;;;;;;;8.32;3.92;;;;;;;;;;5066040;28;20048;-74
2022/06/15 00:44:26;;;;;;;5.78;3.60;;;;;;;;;;5065829;28;20420;-74
2022/06/15 00:47:08;;;;;;;4.30;3.15;;;;;;;;;;5066039;28;20053;-74
2022/06/15 00:49:48;;;;;;;5.60;4.18;;;;;;;;;;5063821;28;20527;-73
2022/06/15 00:52:28;;;;;;;7.78;4.70;;;;;;;;;;5065701;28;20061;-73
2022/06/15 00:54:59;;;;;;;5.63;4.60;;;;;;;;;;5067950;28;20041;-73
2022/06/15 00:57:29;;;;;;;;;;;;;;;;;;5068828;28;20083;-75
2022/06/15 01:00:04;;;;;;;11.50;6.03;;;;;;;;;;5069783;28;20570;-73
2022/06/15 01:02:37;;;;;;;8.10;5.95;;;;;;;;;;5070027;28;20048;-73
2022/06/15 01:05:17;;;;;;;7.68;5.85;;;;;;;;;;5069517;28;20045;-76
2022/06/15 01:08:13;;;;;;;10.40;6.18;;;;;;;;;;5068076;28;20048;-73
2022/06/15 01:11:28;;;;;;;9.50;6.03;;;;;;;;;;5068050;28;20055;-73
2022/06/15 01:14:13;;;;;;;8.00;5.60;;;;;;;;;;5067475;28;20049;-74
2022/06/15 01:17:07;;;;;;;8.23;6.22;;;;;;;;;;5066623;28;20411;-74
2022/06/15 01:20:24;;;;;;;7.15;5.90;;;;;;;;;;5068057;28;20395;-74
2022/06/15 01:23:34;;;;;;;14.75;9.00;;;;;;;;;;5007156;28;20061;-74
2022/06/15 01:26:52;;;;;;;10.52;7.65;;;;;;;;;;5007575;28;20049;-73
2022/06/15 01:29:45;;;;;;;14.57;9.38;;;;;;;;;;5067776;28;20049;-75
2022/06/15 01:32:24;;;;;;;21.20;9.68;;;;;;;;;;5066646;28;20048;-74
2022/06/15 01:35:14;;;;;;;15.27;10.90;;;;;;;;;;5069058;28;20052;-73
2022/06/15 01:37:49;;;;;;;19.83;14.57;;;;;;;;;;5066942;28;20442;-73
2022/06/15 01:40:38;;;;;;;26.10;15.85;;;;;;;;;;5066187;28;20044;-73
2022/06/15 01:43:17;;;;;;;24.58;17.35;;;;;;;;;;5067022;28;20041;-73
2022/06/15 01:45:49;;;;;;;25.10;16.38;;;;;;;;;;5064464;28;20839;-74
2022/06/15 01:48:20;;;;;;;22.77;15.68;;;;;;;;;;5067493;28;20048;-73
2022/06/15 01:50:56;;;;;;;21.43;14.97;;;;;;;;;;5049709;28;20056;-72
2022/06/15 01:53:35;;;;;;;22.45;14.52;;;;;;;;;;5067370;28;20408;-72
2022/06/15 01:56:15;;;;;;;26.02;13.98;;;;;;;;;;5067145;28;20056;-73
2022/06/15 01:58:56;;;;;;;24.67;13.48;;;;;;;;;;5067175;28;20056;-72
2022/06/15 02:01:36;;;;;;;14.07;12.38;;;;;;;;;;5066901;28;20060;-74
2022/06/15 02:04:16;;;;;;;17.92;10.63;;;;;;;;;;5067052;28;20068;-72
2022/06/15 02:07:06;;;;;;;15.82;12.13;;;;;;;;;;5066967;28;20675;-72
2022/06/15 02:09:46;;;;;;;16.20;12.57;;;;;;;;;;5067004;28;20806;-72
2022/06/15 02:12:25;;;;;;;18.58;13.07;;;;;;;;;;5067004;28;20055;-72
2022/06/15 02:14:59;;;;;;;19.33;13.55;;;;;;;;;;5067116;28;20048;-72
2022/06/15 02:17:34;;;;;;;17.17;12.10;;;;;;;;;;5067018;28;20538;-72
2022/06/15 02:20:14;;;;;;;20.80;13.15;;;;;;;;;;5066393;28;20052;-72
2022/06/15 02:22:46;;;;;;;18.30;13.48;;;;;;;;;;5066722;28;20052;-72
2022/06/15 02:25:20;;;;;;;18.50;11.82;;;;;;;;;;5068281;28;20052;-74
2022/06/15 02:27:52;;;;;;;18.48;13.65;;;;;;;;;;5066595;28;20537;-73
2022/06/15 02:30:25;;;;;;;21.42;14.23;;;;;;;;;;5068235;28;20525;-72
2022/06/15 02:33:27;;;;;;;23.35;13.02;;;;;;;;;;5066214;28;20075;-72
2022/06/15 02:36:01;;;;;;;17.17;12.30;;;;;;;;;;5041917;28;20052;-72
2022/06/15 02:38:32;;;;;;;16.15;12.00;;;;;;;;;;5066231;28;20045;-72
2022/06/15 02:41:03;;;;;;;19.52;12.02;;;;;;;;;;5066160;28;20055;-72
2022/06/15 02:43:37;;;;;;;19.70;12.75;;;;;;;;;;5066458;28;20515;-72
2022/06/15 02:46:10;;;;;;;16.85;11.02;;;;;;;;;;5066449;28;20724;-72
2022/06/15 02:48:41;;;;;;;18.15;11.60;;;;;;;;;;5066456;28;20766;-72
2022/06/15 02:51:27;;;;;;;16.50;11.38;;;;;;;;;;5065634;28;20048;-72
2022/06/15 02:54:11;;;;;;;13.52;10.70;;;;;;;;;;5066076;28;20056;-72
2022/06/15 02:56:42;;;;;;;15.27;10.43;;;;;;;;;;5067766;28;20399;-72
2022/06/15 02:59:12;;;;;;;11.50;10.02;;;;;;;;;;5067795;28;20083;-72
2022/06/15 03:01:44;;;;;;;13.68;9.82;;;;;;;;;;5066018;28;20044;-72
2022/06/15 03:04:14;;;;;;;11.23;9.10;;;;;;;;;;5066029;28;20055;-72
2022/06/15 03:06:44;;;;;;;11.15;9.38;;;;;;;;;;5065733;28;20518;-72
2022/06/15 03:09:17;;;;;;;15.88;10.43;;;;;;;;;;5065759;28;20053;-73
2022/06/15 03:11:49;;;;;;;16.20;11.40;;;;;;;;;;5065388;28;20061;-72
2022/06/15 03:14:29;;;;;;;14.65;10.40;;;;;;;;;;5050834;28;20056;-72
2022/06/15 03:16:59;;;;;;;16.60;10.05;;;;;;;;;;5065032;28;20059;-72
2022/06/15 03:19:40;;;;;;;36.33;9.68;;;;;;;;;;5065799;28;20055;-72
2022/06/15 03:22:11;;;;;;;11.82;8.35;;;;;;;;;;5066010;28;20525;-72
2022/06/15 03:24:46;;;;;;;9.90;7.68;;;;;;;;;;5065677;28;20059;-72
2022/06/15 03:27:18;;;;;;;15.25;8.70;;;;;;;;;;5065449;28;20048;-73
2022/06/15 06:21:38;;;;;;;9.70;5.43;;;;;;;;;;5052536;28;20049;-71
2022/06/15 06:24:09;;;;;;;8.50;6.65;;;;;;;;;;5068776;28;20048;-72
2022/06/15 06:26:39;;;;;;;8.38;5.88;;;;;;;;;;5068140;28;20059;-72
2022/06/15 06:29:17;;;;;;;9.07;5.13;;;;;;;;;;5066234;28;20535;-72
2022/06/15 06:31:48;;;;;;;6.35;5.57;;;;;;;;;;5067254;28;20053;-72
2022/06/15 06:34:18;;;;;;;5.93;4.13;;;;;;;;;;5067716;28;20063;-72
2022/06/15 06:36:48;;;;;;;9.93;5.32;;;;;;;;;;5066796;28;20061;-72
2022/06/15 06:39:36;;;;;;;6.78;5.25;;;;;;;;;;5067556;28;20056;-72
2022/06/15 06:42:06;;;;;;;6.38;5.35;;;;;;;;;;5067999;28;20407;-72
2022/06/15 06:44:36;;;;;;;6.03;5.13;;;;;;;;;;5067892;28;20048;-72
2022/06/15 06:47:08;;;;;;;9.50;5.28;;;;;;;;;;5067972;28;20040;-72
2022/06/15 06:49:38;;;;;;;6.40;5.38;;;;;;;;;;5068496;28;20499;-72
2022/06/15 06:52:09;;;;;;;10.63;5.63;;;;;;;;;;5066945;28;20419;-72
2022/06/15 06:54:39;;;;;;;7.07;5.78;;;;;;;;;;5067636;28;20063;-72
2022/06/15 06:57:09;;;;;;;7.28;5.63;;;;;;;;;;5067485;28;20531;-72
2022/06/15 06:59:39;;;;;;;9.10;6.25;;;;;;;;;;5067418;28;20056;-72
2022/06/15 07:02:10;;;;;;;11.73;6.88;;;;;;;;;;5067234;28;20521;-72
2022/06/15 07:04:41;;;;;;;9.00;5.82;;;;;;;;;;5067650;28;20055;-72
2022/06/15 07:07:10;;;;;;;12.40;7.10;;;;;;;;;;5065988;28;20053;-72
2022/06/15 07:09:41;;;;;;;7.75;5.20;;;;;;;;;;5067940;28;20045;-71
2022/06/15 07:12:11;;;;;;;6.22;5.63;;;;;;;;;;5067264;28;20119;-72
2022/06/15 07:14:41;;;;;;;5.72;4.30;;;;;;;;;;5066752;28;20048;-72
2022/06/15 07:17:11;;;;;;;4.97;3.80;;;;;;;;;;5066057;28;20056;-72
2022/06/15 07:19:47;;;;;;;5.63;4.40;;;;;;;;;;5066860;28;20049;-72
2022/06/15 07:22:17;;;;;;;5.68;4.15;;;;;;;;;;5066586;28;20064;-72
2022/06/15 07:24:47;;;;;;;6.93;5.00;;;;;;;;;;5067358;28;20526;-72
2022/06/15 07:27:18;;;;;;;8.20;6.32;;;;;;;;;;5067294;28;20044;-72
2022/06/15 07:29:47;;;;;;;10.02;6.70;;;;;;;;;;5066956;28;20069;-72
2022/06/15 07:32:18;;;;;;;8.40;6.68;;;;;;;;;;5067256;28;20040;-72
2022/06/15 07:34:48;;;;;;;9.10;7.13;;;;;;;;;;5067102;28;20063;-72
2022/06/15 07:37:18;;;;;;;8.50;6.25;;;;;;;;;;5066923;28;20052;-72
2022/06/15 07:40:08;;;;;;;9.80;6.47;;;;;;;;;;5067273;28;20052;-72
2022/06/15 07:42:39;;;;;;;11.73;6.55;;;;;;;;;;5067040;28;20052;-72
2022/06/15 07:45:09;;;;;;;10.88;7.10;;;;;;;;;;5066295;28;20059;-72
2022/06/15 07:50:29;;;;;;;10.05;6.45;;;;;;;;;;5066706;28;20048;-72
2022/06/15 07:53:04;;;;;;;12.48;7.55;;;;;;;;;;5065286;28;20056;-72
2022/06/15 07:55:37;;;;;;;7.95;6.40;;;;;;;;;;5067089;28;20048;-72
2022/06/15 07:58:08;;;;;;;7.82;6.90;;;;;;;;;;5066482;28;20037;-72
2022/06/15 08:00:41;;;;;;;76.90;9.18;;;;;;;;;;5066678;28;20040;-72
2022/06/15 08:03:11;;;;;;;8.88;7.70;;;;;;;;;;5066094;28;20048;-72
2022/06/15 08:05:46;;;;;;;10.23;6.70;;;;;;;;;;5066915;28;20059;-72
2022/06/15 08:08:24;;;;;;;10.20;7.28;;;;;;;;;;5067278;28;20067;-72
2022/06/15 08:10:54;;;;;;;13.60;7.10;;;;;;;;;;5066610;28;20072;-72
2022/06/15 08:13:25;;;;;;;59.20;10.07;;;;;;;;;;5066760;28;20052;-72
2022/06/15 08:15:55;;;;;;;14.50;9.50;;;;;;;;;;5066501;28;20052;-71
2022/06/15 08:18:28;;;;;;;26.30;8.23;;;;;;;;;;5066244;28;20071;-72
2022/06/15 08:21:12;;;;;;;25.58;8.20;;;;;;;;;;5066008;28;20051;-72
2022/06/15 08:23:45;;;;;;;11.63;7.82;;;;;;;;;;5066518;28;20049;-72
2022/06/15 08:26:19;;;;;;;9.15;6.47;;;;;;;;;;5066654;28;20044;-72
2022/06/15 08:28:53;;;;;;;6.63;4.65;;;;;;;;;;5066362;28;20048;-72
2022/06/15 08:31:23;;;;;;;7.88;5.45;;;;;;;;;;5066786;28;20040;-72
2022/06/15 08:33:53;;;;;;;6.67;5.47;;;;;;;;;;5066512;28;20044;-72
2022/06/15 08:36:23;;;;;;;5.63;4.65;;;;;;;;;;5065938;28;20049;-72
2022/06/15 08:38:53;;;;;;;6.25;5.00;;;;;;;;;;5066680;28;20060;-71
2022/06/15 08:41:41;;;;;;;7.43;4.93;;;;;;;;;;5066099;28;20056;-72
2022/06/15 08:44:17;;;;;;;6.38;5.53;;;;;;;;;;5066143;28;20041;-72
2022/06/15 08:46:53;;;;;;;5.68;4.55;;;;;;;;;;5066312;28;20063;-72
2022/06/15 08:49:47;;;;;;;4.55;3.95;;;;;;;;;;5066056;28;20047;-72
2022/06/15 08:52:32;;;;;;;3.42;3.03;;;;;;;;;;5064706;28;20040;-72
2022/06/15 08:55:07;;;;;;;3.40;2.92;;;;;;;;;;5066440;28;20044;-72
2022/06/15 08:57:50;;;;;;;5.35;4.35;;;;;;;;;;5064993;28;20045;-72
2022/06/15 09:00:27;;;;;;;6.72;5.10;;;;;;;;;;5066301;28;20103;-72
2022/06/15 09:03:39;;;;;;;8.88;4.85;;;;;;;;;;5064495;28;20059;-72
2022/06/15 09:06:21;;;;;;;5.10;4.57;;;;;;;;;;5066394;28;20048;-71
2022/06/15 09:09:23;;;;;;;9.15;5.53;;;;;;;;;;5064687;28;20056;-72
2022/06/15 09:15:20;;;;;;;7.32;4.78;;;;;;;;;;5066509;28;20419;-72
2022/06/15 09:17:52;;;;;;;6.30;4.50;;;;;;;;;;5070014;28;20522;-72
2022/06/15 09:20:51;;;;;;;5.10;4.60;;;;;;;;;;5069900;28;20051;-72
2022/06/15 09:23:41;;;;;;;6.15;4.05;;;;;;;;;;5062302;28;20056;-72
2022/06/15 09:26:30;;;;;;;6.18;3.83;;;;;;;;;;5069413;28;20049;-72
2022/06/15 09:29:01;;;;;;;5.35;3.42;;;;;;;;;;5068813;28;20511;-72
2022/06/15 09:31:50;;;;;;;7.88;4.22;;;;;;;;;;5068794;28;20052;-73
2022/06/15 09:34:44;;;;;;;6.13;4.40;;;;;;;;;;5069546;28;20530;-72
2022/06/15 09:37:20;;;;;;;6.95;4.55;;;;;;;;;;5069266;28;20064;-72
2022/06/15 09:39:51;;;;;;;7.10;4.30;;;;;;;;;;5069039;28;20040;-72
2022/06/15 09:42:40;;;;;;;7.13;5.30;;;;;;;;;;5069072;28;20045;-72
2022/06/15 09:45:27;;;;;;;6.25;4.75;;;;;;;;;;5069280;28;20048;-72
2022/06/15 09:48:37;;;;;;;7.93;4.13;;;;;;;;;;5068996;28;20503;-72
2022/06/15 09:51:13;;;;;;;4.80;4.03;;;;;;;;;;5068942;28;20052;-80
2022/06/15 09:54:12;;;;;;;5.13;4.13;;;;;;;;;;5068748;28;20760;-73
2022/06/15 09:56:42;;;;;;;8.48;4.50;;;;;;;;;;5062944;28;20397;-73
2022/06/15 09:59:17;;;;;;;8.27;5.60;;;;;;;;;;5068381;28;20048;-72
2022/06/15 10:01:48;;;;;;;7.50;5.55;;;;;;;;;;5068546;28;20041;-73
2022/06/15 10:04:23;;;;;;;;;;;;;;;;;;5068681;28;20055;-74
2022/06/15 10:07:26;;;;;;;16.42;5.53;;;;;;;;;;5068427;28;19924;-74
2022/06/15 10:10:13;;;;;;;13.07;7.00;;;;;;;;;;5069058;28;20067;-73
2022/06/15 10:12:56;;;;;;;9.63;6.18;;;;;;;;;;5066944;28;20056;-73
2022/06/15 10:15:41;;;;;;;7.97;5.50;;;;;;;;;;5067219;28;20055;-73
2022/06/15 10:18:19;;;;;;;11.02;5.25;;;;;;;;;;5068642;28;20491;-73
2022/06/15 10:21:11;;;;;;;5.65;5.05;;;;;;;;;;5068039;28;20040;-73
2022/06/15 10:23:56;;;;;;;15.93;7.00;;;;;;;;;;5068096;28;20052;-73
2022/06/15 10:26:46;;;;;;;11.50;5.90;;;;;;;;;;5068193;28;20629;-73
2022/06/15 10:29:15;;;;;;;21.60;8.40;;;;;;;;;;5065704;28;20037;-72
2022/06/15 10:32:14;;;;;;;13.02;8.73;;;;;;;;;;5067491;28;20048;-72
2022/06/15 10:35:04;;;;;;;37.55;7.60;;;;;;;;;;5068085;28;20039;-72
2022/06/15 10:37:46;;;;;;;38.15;7.20;;;;;;;;;;5068157;28;20036;-74
2022/06/15 10:40:34;;;;;;;23.67;6.90;;;;;;;;;;5068389;28;20045;-72
2022/06/15 10:43:13;;;;;;;38.17;8.63;;;;;;;;;;5067998;28;20044;-73
2022/06/15 10:46:07;;;;;;;17.13;6.00;;;;;;;;;;5067937;28;20395;-73
2022/06/15 10:48:47;;;;;;;14.25;6.50;;;;;;;;;;5067170;28;20059;-73
2022/06/15 10:51:30;;;;;;;14.75;5.68;;;;;;;;;;5067588;28;20056;-73
2022/06/15 10:54:22;;;;;;;10.70;5.70;;;;;;;;;;5067936;28;20380;-73
2022/06/15 11:02:47;;;;;;;11.70;6.18;;;;;;;;;;5065240;28;20071;-73
2022/06/15 11:05:24;;;;;;;35.78;6.63;;;;;;;;;;5067359;28;20411;-73
2022/06/15 11:07:56;;;;;;;11.07;5.00;;;;;;;;;;5066368;28;20052;-73
2022/06/15 11:10:39;;;;;;;6.38;4.47;;;;;;;;;;5067350;28;20059;-73
2022/06/15 11:13:33;;;;;;;6.13;4.30;;;;;;;;;;5067377;28;20055;-79
2022/06/15 11:19:30;;;;;;;6.75;3.00;;;;;;;;;;4994798;28;20054;-70
2022/06/15 11:22:12;;;;;;;8.88;3.30;;;;;;;;;;5067079;28;20053;-71
2022/06/15 11:24:59;;;;;;;44.63;11.20;;;;;;;;;;5067281;28;20040;-71
2022/06/15 11:27:48;;;;;;;13.93;4.68;;;;;;;;;;5066695;28;20052;-72
2022/06/15 11:30:34;;;;;;;9.68;4.68;;;;;;;;;;5065550;28;20511;-71
2022/06/15 11:33:19;;;;;;;24.20;4.32;;;;;;;;;;5066459;28;20515;-72
2022/06/15 11:36:11;;;;;;;9.75;3.00;;;;;;;;;;5066026;28;20044;-74
2022/06/15 11:38:54;;;;;;;5.63;2.85;;;;;;;;;;5066628;28;20048;-72
2022/06/15 11:41:29;;;;;;;8.32;3.08;;;;;;;;;;5067093;28;20055;-73
2022/06/15 11:44:01;;;;;;;13.18;3.28;;;;;;;;;;5066592;28;20495;-73
2022/06/15 11:46:48;;;;;;;11.63;4.25;;;;;;;;;;5066372;28;20044;-73
2022/06/15 11:49:38;;;;;;;5.70;2.53;;;;;;;;;;5065896;28;20043;-73
2022/06/15 11:52:38;;;;;;;9.85;3.00;;;;;;;;;;5036043;28;20064;-73
2022/06/15 11:55:26;;;;;;;20.63;4.15;;;;;;;;;;5066534;28;20051;-73
2022/06/15 11:58:24;;;;;;;6.57;2.13;;;;;;;;;;5066966;28;20483;-74
2022/06/15 12:01:11;;;;;;;9.60;4.40;;;;;;;;;;5037404;28;20539;-74
2022/06/15 12:03:44;;;;;;;8.25;3.45;;;;;;;;;;5065283;28;20052;-74
2022/06/15 12:06:20;;;;;;;44.63;4.63;;;;;;;;;;5066204;28;20053;-75
2022/06/15 12:09:16;;;;;;;9.07;3.25;;;;;;;;;;5066573;28;20043;-73
2022/06/15 12:15:02;;;;;;;6.30;3.10;;;;;;;;;;5065979;28;20057;-73
2022/06/15 12:17:47;;;;;;;3.83;2.53;;;;;;;;;;5066777;28;20492;-74
2022/06/15 12:20:44;;;;;;;5.82;2.75;;;;;;;;;;5066338;28;20504;-74
2022/06/15 12:23:20;;;;;;;20.52;3.67;;;;;;;;;;5066748;28;20044;-73
2022/06/15 12:26:09;;;;;;;25.45;4.38;;;;;;;;;;5066518;28;20114;-73
2022/06/15 12:29:16;;;;;;;7.88;3.03;;;;;;;;;;5066679;28;20404;-74
2022/06/15 12:31:54;;;;;;;10.77;3.85;;;;;;;;;;5066122;28;20045;-74
2022/06/15 12:34:46;;;;;;;9.68;2.70;;;;;;;;;;5066151;28;20040;-74
2022/06/15 12:37:23;;;;;;;8.65;3.03;;;;;;;;;;5066397;28;20045;-72
2022/06/15 12:40:25;;;;;;;26.30;3.72;;;;;;;;;;5065237;28;20060;-75
2022/06/15 12:43:20;;;;;;;9.18;2.80;;;;;;;;;;5065260;28;20081;-74
2022/06/15 12:45:57;;;;;;;20.67;3.53;;;;;;;;;;5058841;28;20515;-74
2022/06/15 12:48:45;;;;;;;12.55;3.50;;;;;;;;;;5066140;28;20055;-74
2022/06/15 12:51:36;;;;;;;7.55;2.42;;;;;;;;;;5068139;28;20045;-74
2022/06/15 12:54:21;;;;;;;3.75;2.15;;;;;;;;;;5069915;28;20083;-73
2022/06/15 12:56:54;;;;;;;24.15;3.72;;;;;;;;;;5069703;28;20779;-74
2022/06/15 12:59:37;;;;;;;9.63;2.15;;;;;;;;;;5069650;28;20048;-74
2022/06/15 13:02:36;;;;;;;8.30;2.28;;;;;;;;;;5069761;28;20063;-74
2022/06/15 13:05:35;;;;;;;12.57;2.70;;;;;;;;;;5069801;28;20052;-74
2022/06/15 13:08:14;;;;;;;6.60;2.30;;;;;;;;;;5070001;28;20040;-74
2022/06/15 13:10:59;;;;;;;8.45;2.50;;;;;;;;;;5069438;28;20051;-73
2022/06/15 13:13:37;;;;;;;14.68;7.47;;;;;;;;;;5069456;28;20049;-74
2022/06/15 13:16:13;;;;;;;12.40;2.70;;;;;;;;;;5067422;28;20052;-73
2022/06/15 13:18:52;;;;;;;15.95;3.70;;;;;;;;;;5069505;28;20107;-74
2022/06/15 13:21:26;;;;;;;11.35;2.97;;;;;;;;;;5069047;28;20052;-74
2022/06/15 13:24:04;;;;;;;13.85;3.40;;;;;;;;;;5069483;28;20045;-73
2022/06/15 13:26:41;;;;;;;3.22;2.10;;;;;;;;;;5068819;28;20052;-73
2022/06/15 13:29:15;;;;;;;6.60;2.90;;;;;;;;;;5067491;28;20531;-74
2022/06/15 13:31:57;;;;;;;17.25;3.05;;;;;;;;;;5069516;28;20063;-73
2022/06/15 13:34:30;;;;;;;10.40;2.40;;;;;;;;;;5069353;28;21126;-74
2022/06/15 13:37:15;;;;;;;5.97;2.55;;;;;;;;;;5067718;28;20048;-73
2022/06/15 13:39:58;;;;;;;4.25;2.28;;;;;;;;;;5068958;28;20609;-73
2022/06/15 13:42:45;;;;;;;6.05;2.50;;;;;;;;;;5069329;28;20056;-74
2022/06/15 13:45:22;;;;;;;5.47;2.40;;;;;;;;;;5068133;28;20052;-74
2022/06/15 13:47:57;;;;;;;5.13;2.47;;;;;;;;;;5067861;28;20424;-74
2022/06/15 13:50:38;;;;;;;7.85;2.70;;;;;;;;;;5069099;28;20048;-74
2022/06/15 13:53:38;;;;;;;23.83;4.20;;;;;;;;;;5069095;28;20040;-74
2022/06/15 13:56:37;;;;;;;4.82;2.60;;;;;;;;;;5068833;28;20044;-74
2022/06/15 13:59:31;;;;;;;8.00;3.10;;;;;;;;;;5069121;28;20058;-74
2022/06/15 14:02:16;;;;;;;38.95;4.60;;;;;;;;;;5067952;28;20041;-74
2022/06/15 14:05:03;;;;;;;10.52;3.97;;;;;;;;;;5068403;28;20403;-74
2022/06/15 14:07:50;;;;;;;7.53;2.90;;;;;;;;;;5068912;28;20048;-74
2022/06/15 14:10:51;;;;;;;36.65;4.93;;;;;;;;;;5068666;28;20047;-74
2022/06/15 14:13:39;;;;;;;9.02;3.45;;;;;;;;;;5068510;28;20045;-75
2022/06/15 14:16:46;;;;;;;4.05;2.65;;;;;;;;;;5068506;28;20044;-74
2022/06/15 14:19:37;;;;;;;10.13;3.13;;;;;;;;;;5068200;28;20064;-77
2022/06/15 14:22:28;;;;;;;7.03;3.35;;;;;;;;;;5069103;28;20063;-73
2022/06/15 14:25:10;;;;;;;5.72;2.50;;;;;;;;;;5067599;28;20056;-73
2022/06/15 14:27:40;;;;;;;9.88;2.85;;;;;;;;;;5068315;28;20045;-73
2022/06/15 14:30:26;;;;;;;8.70;2.35;;;;;;;;;;5068095;28;20055;-75
2022/06/15 14:33:02;;;;;;;4.80;2.03;;;;;;;;;;5067450;28;20052;-73
2022/06/15 14:35:33;;;;;;;5.00;2.00;;;;;;;;;;5067660;28;20041;-73
2022/06/15 14:38:05;;;;;;;5.22;1.70;;;;;;;;;;5067853;28;20399;-73
2022/06/15 14:40:38;;;;;;;8.90;2.05;;;;;;;;;;5068042;28;20054;-77
2022/06/15 14:43:11;;;;;;;5.20;2.00;;;;;;;;;;5068122;28;20067;-73
2022/06/15 14:45:47;;;;;;;4.78;2.28;;;;;;;;;;5067733;28;20521;-73
2022/06/15 14:48:35;;;;;;;9.73;2.28;;;;;;;;;;5068044;28;20041;-73
2022/06/15 14:51:22;;;;;;;4.75;2.20;;;;;;;;;;5067649;28;20150;-74
2022/06/15 14:53:55;;;;;;;3.72;2.03;;;;;;;;;;5067508;28;20048;-73
2022/06/15 14:56:29;;;;;;;8.10;1.90;;;;;;;;;;5067150;28;20045;-74
2022/06/15 14:59:07;;;;;;;4.65;1.80;;;;;;;;;;5067769;28;20388;-73
2022/06/15 15:02:05;;;;;;;4.93;2.30;;;;;;;;;;5067185;28;20051;-74
2022/06/15 15:04:48;;;;;;;10.68;2.30;;;;;;;;;;5067636;28;20049;-74
2022/06/15 15:10:48;;;;;;;5.68;2.47;;;;;;;;;;5067119;28;20206;-75
2022/06/15 15:13:29;;;;;;;3.55;2.05;;;;;;;;;;5066933;28;20067;-72
2022/06/15 15:16:06;;;;;;;;;;;;;;;;;;5067662;28;20044;-73
2022/06/15 15:18:43;;;;;;;4.05;2.17;;;;;;;;;;5067776;28;19920;-72
2022/06/15 15:21:40;;;;;;;10.02;3.25;;;;;;;;;;5066519;28;20060;-74
2022/06/15 15:24:13;;;;;;;3.17;2.40;;;;;;;;;;5066797;28;20048;-74
2022/06/15 15:27:13;;;;;;;4.20;2.78;;;;;;;;;;5066803;28;20048;-73
2022/06/15 15:35:35;;;;;;;9.20;3.20;;;;;;;;;;5064628;28;20052;-74
2022/06/15 15:38:27;;;;;;;10.05;2.60;;;;;;;;;;5067597;28;20052;-73
2022/06/15 15:40:59;;;;;;;5.93;3.00;;;;;;;;;;5067112;28;20044;-73
2022/06/15 15:43:31;;;;;;;7.90;3.05;;;;;;;;;;5066876;28;20403;-74
2022/06/15 15:46:01;;;;;;;8.43;2.70;;;;;;;;;;5065092;28;20078;-75
2022/06/15 15:48:31;;;;;;;13.15;3.35;;;;;;;;;;5066843;28;20053;-73
2022/06/15 15:51:01;;;;;;;21.60;4.72;;;;;;;;;;5066555;28;20048;-74
2022/06/15 15:53:31;;;;;;;6.32;2.90;;;;;;;;;;5066577;28;20052;-74
2022/06/15 15:56:01;;;;;;;6.68;3.53;;;;;;;;;;5066571;28;20063;-73
2022/06/15 15:58:32;;;;;;;6.95;3.08;;;;;;;;;;5064608;28;20602;-74
2022/06/15 16:01:01;;;;;;;7.15;3.15;;;;;;;;;;5066394;28;20041;-75
2022/06/15 16:03:32;;;;;;;8.25;3.33;;;;;;;;;;5067193;28;20052;-77
2022/06/15 16:06:02;;;;;;;5.75;3.70;;;;;;;;;;5066814;28;20400;-73
2022/06/15 16:08:32;;;;;;;6.38;3.67;;;;;;;;;;5066539;28;20048;-74
2022/06/15 16:11:02;;;;;;;29.93;6.37;;;;;;;;;;5066692;28;20071;-73
2022/06/15 16:13:32;;;;;;;8.57;4.05;;;;;;;;;;5064295;28;20305;-73
2022/06/15 16:16:04;;;;;;;7.25;3.42;;;;;;;;;;5064230;28;20052;-73
2022/06/15 16:18:35;;;;;;;6.72;3.63;;;;;;;;;;5066664;28;20051;-73
2022/06/15 16:21:06;;;;;;;6.35;3.42;;;;;;;;;;5064782;28;20055;-74
2022/06/15 16:23:40;;;;;;;8.63;3.75;;;;;;;;;;5066780;28;20549;-73
2022/06/15 16:26:11;;;;;;;6.20;3.55;;;;;;;;;;5069566;28;20060;-74
2022/06/15 16:28:41;;;;;;;11.52;3.58;;;;;;;;;;5070540;28;20056;-74
2022/06/15 16:31:11;;;;;;;6.25;3.72;;;;;;;;;;5070493;28;20072;-74
2022/06/15 16:33:41;;;;;;;9.02;3.90;;;;;;;;;;5069955;28;20055;-73
2022/06/15 16:36:16;;;;;;;7.70;3.95;;;;;;;;;;5069468;28;20049;-74
2022/06/15 16:38:46;;;;;;;12.30;3.42;;;;;;;;;;5070310;28;20040;-73
2022/06/15 16:41:16;;;;;;;5.37;3.60;;;;;;;;;;5070202;28;20048;-74
2022/06/15 16:43:49;;;;;;;9.75;3.80;;;;;;;;;;5069854;28;20050;-73
2022/06/15 16:46:22;;;;;;;7.70;3.60;;;;;;;;;;5069508;28;20063;-73
2022/06/15 16:48:52;;;;;;;9.55;3.17;;;;;;;;;;5069612;28;20040;-75
2022/06/15 16:51:24;;;;;;;5.67;3.43;;;;;;;;;;5068569;28;20053;-73
2022/06/15 16:53:55;;;;;;;6.80;3.25;;;;;;;;;;5070607;28;20052;-73
2022/06/15 16:56:43;;;;;;;8.90;3.60;;;;;;;;;;5068541;28;20056;-75
2022/06/15 16:59:17;;;;;;;10.82;3.72;;;;;;;;;;5070025;28;20044;-74
2022/06/15 17:01:51;;;;;;;9.20;3.72;;;;;;;;;;5070679;28;20048;-74
2022/06/15 17:04:23;;;;;;;6.93;3.55;;;;;;;;;;5070135;28;20052;-75
2022/06/15 17:07:03;;;;;;;7.70;3.38;;;;;;;;;;5069902;28;20041;-73
2022/06/15 17:09:34;;;;;;;24.08;3.58;;;;;;;;;;5069266;28;20495;-73
2022/06/15 17:12:06;;;;;;;9.68;3.33;;;;;;;;;;5068313;28;20052;-74
2022/06/15 17:14:37;;;;;;;10.50;3.45;;;;;;;;;;5070183;28;20032;-73
2022/06/15 17:17:07;;;;;;;4.30;3.10;;;;;;;;;;5069916;28;20041;-74
2022/06/15 17:19:38;;;;;;;6.47;3.35;;;;;;;;;;5068988;28;20048;-74
2022/06/15 17:22:09;;;;;;;7.25;3.38;;;;;;;;;;5068933;28;20610;-74
2022/06/15 17:25:00;;;;;;;7.70;3.40;;;;;;;;;;5069769;28;20508;-74
2022/06/15 17:27:30;;;;;;;12.75;3.67;;;;;;;;;;5069226;28;20056;-74
2022/06/15 17:30:00;;;;;;;9.50;3.17;;;;;;;;;;5068229;28;20056;-75
2022/06/15 17:32:29;;;;;;;15.23;3.17;;;;;;;;;;5068860;28;20551;-73
2022/06/15 17:34:59;;;;;;;9.50;3.10;;;;;;;;;;5069296;28;20472;-73
2022/06/15 17:37:30;;;;;;;5.63;2.80;;;;;;;;;;5068523;28;20041;-77
2022/06/15 17:40:00;;;;;;;7.15;3.45;;;;;;;;;;5069492;28;20055;-74
2022/06/15 17:42:32;;;;;;;8.88;3.60;;;;;;;;;;5069313;28;20048;-72
2022/06/15 17:45:03;;;;;;;13.65;4.70;;;;;;;;;;5067542;28;20056;-75
2022/06/15 17:47:35;;;;;;;12.80;4.32;;;;;;;;;;5068952;28;20415;-73
2022/06/15 17:50:05;;;;;;;;;;;;;;;;;;5069421;28;20052;-74
2022/06/15 17:52:35;;;;;;;13.50;5.20;;;;;;;;;;5068949;28;19924;-73
2022/06/15 17:55:06;;;;;;;13.30;4.85;;;;;;;;;;5069002;28;20079;-73
2022/06/15 17:57:36;;;;;;;10.45;4.60;;;;;;;;;;5068409;28;20048;-73
2022/06/15 18:00:08;;;;;;;11.43;4.53;;;;;;;;;;5068565;28;20044;-74
2022/06/15 18:02:41;;;;;;;13.52;4.82;;;;;;;;;;5068995;28;20040;-74
2022/06/15 18:05:11;;;;;;;15.00;4.97;;;;;;;;;;5066665;28;20063;-74
2022/06/15 18:07:42;;;;;;;11.23;5.43;;;;;;;;;;5068624;28;20487;-73
2022/06/15 18:10:13;;;;;;;18.88;5.72;;;;;;;;;;5069001;28;20055;-75
2022/06/15 18:12:44;;;;;;;13.15;5.75;;;;;;;;;;5068335;28;20041;-75
2022/06/15 18:15:19;;;;;;;18.58;5.90;;;;;;;;;;5068432;28;20056;-73
2022/06/15 18:17:51;;;;;;;13.73;5.88;;;;;;;;;;5068482;28;20040;-76
2022/06/15 18:20:27;;;;;;;7.60;5.15;;;;;;;;;;5068289;28;20507;-74
2022/06/15 18:22:59;;;;;;;13.68;5.30;;;;;;;;;;5068105;28;20508;-74
2022/06/15 18:25:29;;;;;;;12.60;5.10;;;;;;;;;;5068529;28;20056;-73
2022/06/15 18:28:00;;;;;;;17.52;4.55;;;;;;;;;;5068077;28;20528;-73
2022/06/15 18:30:30;;;;;;;10.25;4.30;;;;;;;;;;5068373;28;20051;-75
2022/06/15 18:33:00;;;;;;;12.88;4.45;;;;;;;;;;5068798;28;20056;-74
2022/06/15 18:35:32;;;;;;;10.23;4.68;;;;;;;;;;5067813;28;20044;-73
2022/06/15 18:38:05;;;;;;;13.52;4.50;;;;;;;;;;5067785;28;20049;-74
2022/06/15 18:40:37;;;;;;;14.25;4.53;;;;;;;;;;5067417;28;20411;-75
2022/06/15 18:48:46;;;;;;;32.00;8.10;;;;;;;;;;5067621;28;20045;-74
2022/06/15 18:51:19;;;;;;;8.75;3.47;;;;;;;;;;5067643;28;20044;-73
2022/06/15 18:53:49;;;;;;;8.93;3.60;;;;;;;;;;5067721;28;20052;-72
2022/06/15 18:56:19;;;;;;;15.90;3.70;;;;;;;;;;5068189;28;20048;-73
2022/06/15 18:58:52;;;;;;;27.75;7.47;;;;;;;;;;5067366;28;20052;-73
2022/06/15 19:01:22;;;;;;;19.85;5.25;;;;;;;;;;5065982;28;20040;-75
2022/06/15 19:03:53;;;;;;;12.65;4.60;;;;;;;;;;5068030;28;20488;-72
2022/06/15 19:06:23;;;;;;;11.82;4.68;;;;;;;;;;5067070;28;20803;-72